Flight Track Log - Related Links

Times and Time Zones

All times are in EST time to prevent confusion due to time zone crossing. See the CPT8773 flight status page for this flight to view local times or setup timezone preferences in your user account.

Time Position Orientation Groundspeed Altitude Reporting Facility
EST Latitude Longitude Course Direction KTS MPH feet Rate Location/Type
Thu 10:31:04 AM 42.9650 -106.5042 350° North 125 144 7,900  Level Denver Center
Thu 10:32:05 AM 42.9942 -106.5161 343° North 122 140 8,800 927 Climbing Denver Center
Thu 10:33:07 AM 43.0192 -106.5517 314° West 118 136 9,800 823 Climbing Denver Center
Thu 10:34:09 AM 43.0378 -106.5806 311° West 112 129 10,500 732 Climbing Denver Center
Thu 10:35:00 AM 43.0611 -106.6979 307° West  Level Estimated
Thu 10:35:10 AM 43.0628 -106.6056 324° Northwest 112 129 11,300  Level Denver Center
Thu 10:36:00 AM 43.0987 -106.7068 350° North  Level FlightAware Approximate
Thu 10:36:12 AM 43.0956 -106.6189 343° North 109 125 12,000  Level Denver Center
Thu 10:37:13 AM 43.1303 -106.6286 348° North 124 143 12,000  Level Denver Center
Thu 10:38:15 AM 43.1767 -106.6411 349° North 144 166 12,000  Level Denver Center
Thu 10:39:17 AM 43.2156 -106.6528 348° North 149 171 12,000  Level Denver Center
Thu 10:40:19 AM 43.2617 -106.6644 350° North 150 173 12,000  Level Denver Center
Thu 10:41:20 AM 43.2997 -106.6786 345° North 149 171 12,000  Level Denver Center
Thu 10:42:22 AM 43.3233 -106.7214 307° West 145 167 12,000  Level Salt Lake Center
Thu 10:43:23 AM 43.3481 -106.7725 304° West 143 165 12,000  Level Salt Lake Center
Thu 10:44:25 AM 43.3708 -106.8114 309° West 139 160 12,000  Level Salt Lake Center
Thu 10:45:26 AM 43.3978 -106.8608 307° West 143 165 12,000  Level Salt Lake Center
Thu 10:46:28 AM 43.4194 -106.9039 305° West 143 165 12,000  Level Salt Lake Center
Thu 10:47:30 AM 43.4428 -106.9472 307° West 143 165 12,000 98 Level Salt Lake Center
Thu 10:48:31 AM 43.4656 -106.9919 305° West 143 165 12,200 98 Climbing Salt Lake Center
Thu 10:49:33 AM 43.4886 -107.0397 304° West 147 169 12,200  Level Salt Lake Center
Thu 10:50:34 AM 43.5169 -107.0919 307° West 143 165 12,200  Level Salt Lake Center
Thu 10:51:36 AM 43.5406 -107.1358 307° West 143 165 12,200 -48 Level Salt Lake Center
Thu 10:52:38 AM 43.5644 -107.1797 307° West 143 165 12,100 -98 Descending Salt Lake Center
Thu 10:53:39 AM 43.5883 -107.2236 307° West 143 165 12,000 -49 Descending Salt Lake Center
Thu 10:54:41 AM 43.6114 -107.2689 305° West 144 166 12,000 48 Level Salt Lake Center
Thu 10:55:43 AM 43.6347 -107.3136 306° West 144 166 12,100 48 Climbing Salt Lake Center
Thu 10:56:45 AM 43.6578 -107.3578 306° West 143 165 12,100  Level Salt Lake Center
Thu 10:57:46 AM 43.6811 -107.4039 305° West 144 166 12,100  Level Salt Lake Center
Thu 10:58:47 AM 43.7067 -107.4561 304° West 141 162 12,100  Level Salt Lake Center
Thu 10:59:49 AM 43.7297 -107.4989 307° West 140 161 12,100  Level Salt Lake Center
Thu 11:00:51 AM 43.7519 -107.5417 306° West 139 160 12,100  Level Salt Lake Center
Thu 11:01:52 AM 43.7739 -107.5850 305° West 138 159 12,100  Level Salt Lake Center
Thu 11:02:54 AM 43.7958 -107.6286 305° West 138 159 12,100  Level Salt Lake Center
Thu 11:03:56 AM 43.8181 -107.6714 306° West 138 159 12,100  Level Salt Lake Center
Thu 11:04:57 AM 43.8400 -107.7131 306° West 137 158 12,100  Level Salt Lake Center
Thu 11:05:59 AM 43.8664 -107.7642 306° West 136 157 12,100  Level Salt Lake Center
Thu 11:07:01 AM 43.8883 -107.8086 304° West 137 158 12,100  Level Salt Lake Center
Thu 11:08:03 AM 43.9103 -107.8517 305° West 138 159 12,100  Level Salt Lake Center
Thu 11:09:05 AM 43.9331 -107.8947 306° West 138 159 12,100  Level Salt Lake Center
Thu 11:10:06 AM 43.9553 -107.9394 305° West 139 160 12,100  Level Salt Lake Center
Thu 11:11:08 AM 43.9772 -107.9822 305° West 138 159 12,100  Level Salt Lake Center
Thu 11:12:10 AM 44.0000 -108.0247 307° West 138 159 12,100  Level Salt Lake Center
Thu 11:13:11 AM 44.0269 -108.0764 306° West 138 159 12,100  Level Salt Lake Center
Thu 11:14:13 AM 44.0497 -108.1192 307° West 138 159 12,100 -48 Level Salt Lake Center
Thu 11:15:15 AM 44.0719 -108.1611 306° West 137 158 12,000  Descending Salt Lake Center
Thu 11:16:17 AM 44.0939 -108.2042 305° West 136 157 12,100  Climbing Salt Lake Center
Thu 11:17:19 AM 44.1158 -108.2469 306° West 136 157 12,000  Descending Salt Lake Center
Thu 11:18:20 AM 44.1394 -108.2900 307° West 137 158 12,100 49 Climbing Salt Lake Center
Thu 11:19:22 AM 44.1622 -108.3342 306° West 139 160 12,100  Level Salt Lake Center
Thu 11:20:24 AM 44.1897 -108.3869 306° West 139 160 12,100  Level Salt Lake Center
Thu 11:21:26 AM 44.2128 -108.4294 307° West 139 160 12,100  Level Salt Lake Center
Thu 11:22:28 AM 44.2353 -108.4717 307° West 138 159 12,100  Level Salt Lake Center
Thu 11:23:30 AM 44.2572 -108.5136 306° West 136 157 12,100  Level Salt Lake Center
Thu 11:24:32 AM 44.2786 -108.5553 306° West 134 154 12,100  Level Salt Lake Center
Thu 11:25:34 AM 44.2989 -108.5975 304° West 133 153 12,100  Level Salt Lake Center
Thu 11:26:35 AM 44.3214 -108.6394 307° West 133 153 12,100  Level Salt Lake Center

Login

Don't have an account? Register now (free) for customized features, flight alerts, and more!